Time;durP1;ratioP1;P1;durP2;ratioP2;P2;SDS_P1;SDS_P2;PMS_P1;PMS_P2;Temp;Humidity;BMP_temperature;BMP_pressure;BME280_temperature;BME280_humidity;BME280_pressure;Samples;Min_cycle;Max_cycle;Signal;HPM_P1;HPM_P2
2022/04/03 00:01:48;;;;;;;3.95;2.50;;;;;;;;;;4973251;28;20034;-66
2022/04/03 00:04:14;;;;;;;5.38;2.78;;;;;;;;;;4972345;28;20038;-65
2022/04/03 00:06:40;;;;;;;6.68;2.75;;;;;;;;;;4973227;28;20041;-66
2022/04/03 00:09:05;;;;;;;5.07;2.75;;;;;;;;;;4973328;28;20035;-66
2022/04/03 00:11:30;;;;;;;4.95;2.60;;;;;;;;;;4972508;28;20031;-66
2022/04/03 00:13:56;;;;;;;6.18;3.00;;;;;;;;;;4973315;28;20158;-67
2022/04/03 00:16:21;;;;;;;5.57;2.90;;;;;;;;;;4972394;28;20396;-66
2022/04/03 00:18:48;;;;;;;6.00;3.03;;;;;;;;;;4973056;28;20392;-67
2022/04/03 00:21:14;;;;;;;4.25;2.50;;;;;;;;;;4973161;28;20479;-67
2022/04/03 00:23:40;;;;;;;5.13;2.63;;;;;;;;;;4973141;28;20031;-69
2022/04/03 00:26:05;;;;;;;6.75;2.80;;;;;;;;;;4973109;28;20035;-67
2022/04/03 00:28:31;;;;;;;5.93;2.80;;;;;;;;;;4972375;28;20425;-66
2022/04/03 00:30:57;;;;;;;4.20;2.80;;;;;;;;;;4973160;28;20106;-66
2022/04/03 00:33:22;;;;;;;4.10;2.63;;;;;;;;;;4972133;28;20163;-66
2022/04/03 00:35:50;;;;;;;4.40;2.58;;;;;;;;;;4971764;28;20053;-66
2022/04/03 00:38:16;;;;;;;4.90;3.15;;;;;;;;;;4972518;28;20043;-65
2022/04/03 00:40:52;;;;;;;7.32;2.90;;;;;;;;;;4972885;28;20031;-67
2022/04/03 00:43:17;;;;;;;5.13;2.80;;;;;;;;;;4972183;28;20392;-65
2022/04/03 00:45:48;;;;;;;5.78;3.05;;;;;;;;;;4955599;28;20023;-66
2022/04/03 00:48:13;;;;;;;5.32;3.03;;;;;;;;;;4972848;28;20114;-67
2022/04/03 00:50:39;;;;;;;5.22;3.10;;;;;;;;;;4972181;28;20118;-67
2022/04/03 00:53:05;;;;;;;6.00;2.63;;;;;;;;;;4973230;28;20188;-67
2022/04/03 00:55:30;;;;;;;5.13;3.03;;;;;;;;;;4971969;28;20035;-66
2022/04/03 00:57:58;;;;;;;5.75;3.15;;;;;;;;;;4972541;28;20062;-66
2022/04/03 01:00:24;;;;;;;6.88;2.90;;;;;;;;;;4972206;28;20442;-65
2022/04/03 01:02:49;;;;;;;6.45;2.97;;;;;;;;;;4972757;28;20114;-66
2022/04/03 01:05:15;;;;;;;6.10;2.88;;;;;;;;;;4972802;28;20038;-66
2022/04/03 01:07:41;;;;;;;6.18;2.78;;;;;;;;;;4971988;28;20030;-65
2022/04/03 01:10:07;;;;;;;5.18;3.00;;;;;;;;;;4972827;28;20035;-66
2022/04/03 01:12:32;;;;;;;4.85;2.90;;;;;;;;;;4975105;28;20440;-65
2022/04/03 01:14:58;;;;;;;6.35;3.33;;;;;;;;;;4976201;28;20041;-65
2022/04/03 01:17:23;;;;;;;5.82;2.85;;;;;;;;;;4957980;28;20038;-66
2022/04/03 01:19:48;;;;;;;4.85;3.00;;;;;;;;;;4976070;28;20102;-66
2022/04/03 01:22:14;;;;;;;5.32;2.85;;;;;;;;;;4976089;28;20042;-66
2022/04/03 01:24:43;;;;;;;6.82;2.75;;;;;;;;;;4975482;28;20031;-67
2022/04/03 01:27:08;;;;;;;5.72;3.00;;;;;;;;;;4975877;28;20046;-66
2022/04/03 01:29:34;;;;;;;5.43;3.10;;;;;;;;;;4975047;28;20102;-65
2022/04/03 01:31:59;;;;;;;7.60;3.08;;;;;;;;;;4975898;28;20073;-66
2022/04/03 01:34:25;;;;;;;5.28;2.88;;;;;;;;;;4975251;28;20045;-65
2022/04/03 01:36:50;;;;;;;5.57;3.00;;;;;;;;;;4975754;28;20384;-65
2022/04/03 01:39:16;;;;;;;6.03;2.85;;;;;;;;;;4975800;28;20030;-66
2022/04/03 01:41:43;;;;;;;6.55;2.80;;;;;;;;;;4975172;28;20030;-65
2022/04/03 01:44:10;;;;;;;5.28;2.80;;;;;;;;;;4975376;28;20034;-65
2022/04/03 01:46:39;;;;;;;6.57;2.97;;;;;;;;;;4974766;28;20483;-65
2022/04/03 01:49:06;;;;;;;6.47;3.20;;;;;;;;;;4975818;28;20027;-66
2022/04/03 01:51:32;;;;;;;6.15;3.00;;;;;;;;;;4974444;28;20055;-65
2022/04/03 01:53:58;;;;;;;4.95;2.78;;;;;;;;;;4974283;28;20035;-65
2022/04/03 01:56:24;;;;;;;4.82;2.63;;;;;;;;;;4974686;28;20031;-65
2022/04/03 01:58:49;;;;;;;5.13;3.17;;;;;;;;;;4975311;28;20362;-65
2022/04/03 02:01:15;;;;;;;5.45;2.97;;;;;;;;;;4975364;28;20035;-66
2022/04/03 02:03:40;;;;;;;5.97;3.10;;;;;;;;;;4974428;28;20032;-65
2022/04/03 02:06:06;;;;;;;6.50;2.80;;;;;;;;;;4974888;28;20097;-65
2022/04/03 02:08:31;;;;;;;5.82;3.08;;;;;;;;;;4974351;28;20030;-65
2022/04/03 02:10:57;;;;;;;5.18;3.05;;;;;;;;;;4975170;28;20033;-66
2022/04/03 02:13:22;;;;;;;6.50;2.92;;;;;;;;;;4974484;28;20035;-65
2022/04/03 02:15:48;;;;;;;5.55;2.97;;;;;;;;;;4975246;28;20469;-65
2022/04/03 02:18:13;;;;;;;5.32;2.90;;;;;;;;;;4973700;28;20433;-65
2022/04/03 02:20:39;;;;;;;5.68;3.05;;;;;;;;;;4974448;28;20113;-65
2022/04/03 02:23:05;;;;;;;5.55;3.10;;;;;;;;;;4973729;28;20109;-66
2022/04/03 02:25:31;;;;;;;5.40;3.22;;;;;;;;;;4974001;28;20094;-65
2022/04/03 02:27:59;;;;;;;4.90;3.17;;;;;;;;;;4957440;28;20485;-66
2022/04/03 02:30:25;;;;;;;5.80;2.83;;;;;;;;;;4974279;28;20532;-65
2022/04/03 02:32:50;;;;;;;5.63;3.03;;;;;;;;;;4974828;28;20043;-65
2022/04/03 02:35:16;;;;;;;6.78;3.33;;;;;;;;;;4974850;28;20066;-66
2022/04/03 02:37:43;;;;;;;4.53;2.83;;;;;;;;;;4973982;28;20457;-65
2022/04/03 02:40:12;;;;;;;4.78;2.85;;;;;;;;;;4974336;28;20062;-66
2022/04/03 02:42:38;;;;;;;6.00;3.22;;;;;;;;;;4973957;28;20113;-65
2022/04/03 02:45:05;;;;;;;7.38;3.30;;;;;;;;;;4974546;28;20031;-66
2022/04/03 02:47:32;;;;;;;7.82;2.90;;;;;;;;;;4973523;28;20477;-66
2022/04/03 02:49:57;;;;;;;5.70;3.00;;;;;;;;;;4973919;28;20053;-66
2022/04/03 02:52:23;;;;;;;7.13;2.67;;;;;;;;;;4974364;28;20035;-65
2022/04/03 02:54:48;;;;;;;7.07;2.97;;;;;;;;;;4973135;28;20389;-66
2022/04/03 02:57:16;;;;;;;5.55;2.67;;;;;;;;;;4974316;28;20031;-66
2022/04/03 02:59:42;;;;;;;7.85;2.95;;;;;;;;;;4973668;28;20031;-66
2022/04/03 03:02:08;;;;;;;6.65;2.95;;;;;;;;;;4974029;28;20042;-66
2022/04/03 03:04:36;;;;;;;5.10;2.83;;;;;;;;;;4973594;28;20381;-66
2022/04/03 03:07:03;;;;;;;5.25;3.17;;;;;;;;;;4973908;28;20034;-66
2022/04/03 03:09:28;;;;;;;4.65;2.60;;;;;;;;;;4972928;28;20428;-66
2022/04/03 03:11:53;;;;;;;5.50;2.70;;;;;;;;;;4972947;28;20030;-66
2022/04/03 03:14:19;;;;;;;7.45;3.05;;;;;;;;;;4973710;28;20491;-66
2022/04/03 03:16:44;;;;;;;10.05;3.67;;;;;;;;;;4971971;28;20031;-66
2022/04/03 03:19:10;;;;;;;7.93;3.22;;;;;;;;;;4973824;28;20122;-67
2022/04/03 03:21:36;;;;;;;6.75;3.60;;;;;;;;;;4972973;28;20035;-68
2022/04/03 03:24:02;;;;;;;7.65;3.20;;;;;;;;;;4973767;28;20023;-67
2022/04/03 03:26:27;;;;;;;6.32;3.28;;;;;;;;;;4973247;28;20041;-67
2022/04/03 03:28:53;;;;;;;8.38;3.17;;;;;;;;;;4973349;28;20055;-66
2022/04/03 03:31:19;;;;;;;7.50;3.40;;;;;;;;;;4973549;28;20038;-67
2022/04/03 03:33:46;;;;;;;9.68;4.07;;;;;;;;;;4972676;28;20372;-67
2022/04/03 03:36:11;;;;;;;8.70;3.80;;;;;;;;;;4956384;28;20054;-67
2022/04/03 03:38:37;;;;;;;9.00;4.10;;;;;;;;;;4972603;28;20464;-67
2022/04/03 03:41:03;;;;;;;8.90;3.88;;;;;;;;;;4973698;28;20023;-67
2022/04/03 03:43:29;;;;;;;9.32;3.65;;;;;;;;;;4972657;28;20416;-67
2022/04/03 03:45:54;;;;;;;6.25;3.67;;;;;;;;;;4973329;28;20042;-67
2022/04/03 03:48:19;;;;;;;7.60;4.10;;;;;;;;;;4973359;28;20073;-67
2022/04/03 03:50:45;;;;;;;7.05;3.10;;;;;;;;;;4972891;28;20054;-67
2022/04/03 03:53:11;;;;;;;8.32;4.18;;;;;;;;;;4973167;28;20125;-67
2022/04/03 03:55:36;;;;;;;8.20;3.88;;;;;;;;;;4972849;28;20448;-67
2022/04/03 03:58:02;;;;;;;7.50;3.33;;;;;;;;;;4973296;28;20480;-67
2022/04/03 04:00:27;;;;;;;5.57;3.47;;;;;;;;;;4971430;28;20026;-67
2022/04/03 04:02:53;;;;;;;7.45;3.60;;;;;;;;;;4973591;28;20110;-67
2022/04/03 04:05:18;;;;;;;6.18;3.63;;;;;;;;;;4973168;28;20113;-67
2022/04/03 04:07:45;;;;;;;8.13;3.65;;;;;;;;;;4972822;28;20031;-67
2022/04/03 04:10:16;;;;;;;6.55;3.50;;;;;;;;;;4973817;28;20030;-67
2022/04/03 04:12:43;;;;;;;6.65;3.50;;;;;;;;;;4972983;28;20031;-67
2022/04/03 04:15:10;;;;;;;6.32;3.70;;;;;;;;;;4973431;28;20043;-67
2022/04/03 04:17:36;;;;;;;5.50;3.30;;;;;;;;;;4972544;28;20034;-67
2022/04/03 04:20:05;;;;;;;8.65;4.95;;;;;;;;;;4973507;28;20114;-67
2022/04/03 04:22:31;;;;;;;9.75;4.70;;;;;;;;;;4972793;28;20035;-67
2022/04/03 04:24:56;;;;;;;9.23;4.05;;;;;;;;;;4973357;28;20031;-67
2022/04/03 04:27:21;;;;;;;19.63;10.02;;;;;;;;;;4973427;28;20043;-67
2022/04/03 04:29:47;;;;;;;8.75;4.65;;;;;;;;;;4972381;28;20026;-68
2022/04/03 04:32:13;;;;;;;9.43;4.95;;;;;;;;;;4973616;28;20477;-67
2022/04/03 04:34:39;;;;;;;7.88;4.15;;;;;;;;;;4955280;28;20027;-67
2022/04/03 04:37:04;;;;;;;8.60;3.65;;;;;;;;;;4973291;28;20483;-68
2022/04/03 04:39:31;;;;;;;7.85;4.18;;;;;;;;;;4972108;28;20082;-66
2022/04/03 04:41:57;;;;;;;6.93;3.63;;;;;;;;;;4973210;28;20035;-67
2022/04/03 04:44:22;;;;;;;8.77;4.03;;;;;;;;;;4971595;28;20122;-67
2022/04/03 04:46:48;;;;;;;7.28;3.83;;;;;;;;;;4975041;28;20037;-67
2022/04/03 04:49:14;;;;;;;7.85;3.95;;;;;;;;;;4976778;28;20027;-67
2022/04/03 04:51:40;;;;;;;8.15;3.95;;;;;;;;;;4976370;28;20473;-67
2022/04/03 04:54:05;;;;;;;7.53;3.85;;;;;;;;;;4976611;28;20035;-67
2022/04/03 04:56:31;;;;;;;9.38;4.20;;;;;;;;;;4976335;28;20330;-67
2022/04/03 04:58:57;;;;;;;7.93;4.30;;;;;;;;;;4976619;28;20031;-67
2022/04/03 05:01:22;;;;;;;6.85;3.88;;;;;;;;;;4976580;28;20504;-66
2022/04/03 05:03:48;;;;;;;10.07;4.40;;;;;;;;;;4976145;28;20033;-66
2022/04/03 05:06:15;;;;;;;8.25;4.10;;;;;;;;;;4976610;28;20161;-67
2022/04/03 05:08:41;;;;;;;6.68;4.18;;;;;;;;;;4975784;28;20031;-67
2022/04/03 05:11:11;;;;;;;8.65;4.05;;;;;;;;;;4976585;28;20031;-66
2022/04/03 05:13:37;;;;;;;7.30;4.05;;;;;;;;;;4975728;28;20030;-66
2022/04/03 05:16:03;;;;;;;8.38;4.35;;;;;;;;;;4976445;28;20384;-66
2022/04/03 05:18:28;;;;;;;8.77;4.13;;;;;;;;;;4976318;28;20109;-67
2022/04/03 05:20:54;;;;;;;7.30;4.00;;;;;;;;;;4975450;28;20062;-67
2022/04/03 05:23:19;;;;;;;10.98;4.45;;;;;;;;;;4958887;28;20416;-68
2022/04/03 05:25:45;;;;;;;8.10;4.35;;;;;;;;;;4975292;28;20037;-67
2022/04/03 05:28:11;;;;;;;7.35;4.38;;;;;;;;;;4974474;28;20130;-67
2022/04/03 05:30:36;;;;;;;10.43;4.32;;;;;;;;;;4975071;28;20472;-66
2022/04/03 05:33:02;;;;;;;8.85;4.90;;;;;;;;;;4976109;28;20038;-67
2022/04/03 05:35:27;;;;;;;8.38;4.30;;;;;;;;;;4975827;28;20047;-67
2022/04/03 05:37:52;;;;;;;8.52;4.20;;;;;;;;;;4975228;28;20035;-66
2022/04/03 05:40:19;;;;;;;7.20;4.05;;;;;;;;;;4975753;28;20465;-67
2022/04/03 05:42:44;;;;;;;17.60;7.55;;;;;;;;;;4975071;28;20469;-71
2022/04/03 05:45:10;;;;;;;15.57;6.80;;;;;;;;;;4975893;28;20081;-67
2022/04/03 05:47:36;;;;;;;19.35;9.27;;;;;;;;;;4975285;28;20085;-66
2022/04/03 05:50:02;;;;;;;10.88;5.78;;;;;;;;;;4975479;28;20054;-66
2022/04/03 05:52:27;;;;;;;9.43;5.18;;;;;;;;;;4975511;28;20469;-67
2022/04/03 05:54:53;;;;;;;9.07;4.82;;;;;;;;;;4975108;28;20310;-66
2022/04/03 05:57:18;;;;;;;8.35;4.57;;;;;;;;;;4975440;28;20046;-67
2022/04/03 05:59:43;;;;;;;7.82;4.55;;;;;;;;;;4974826;28;20030;-66
2022/04/03 06:02:11;;;;;;;8.45;5.45;;;;;;;;;;4975554;28;20030;-66
2022/04/03 06:04:36;;;;;;;9.98;5.75;;;;;;;;;;4973290;28;20039;-67
2022/04/03 06:07:02;;;;;;;8.80;5.43;;;;;;;;;;4975215;28;20059;-67
2022/04/03 06:09:27;;;;;;;12.60;4.70;;;;;;;;;;4975220;28;20063;-67
2022/04/03 06:11:53;;;;;;;8.98;4.70;;;;;;;;;;4974533;28;20432;-66
2022/04/03 06:14:18;;;;;;;8.60;4.40;;;;;;;;;;4975071;28;20101;-66
2022/04/03 06:16:43;;;;;;;8.82;4.13;;;;;;;;;;4974784;28;20029;-66
2022/04/03 06:19:09;;;;;;;6.95;3.92;;;;;;;;;;4975348;28;20062;-67
2022/04/03 06:21:34;;;;;;;7.43;3.70;;;;;;;;;;4975171;28;20089;-66
2022/04/03 06:23:59;;;;;;;7.03;4.03;;;;;;;;;;4974141;28;20082;-67
2022/04/03 06:26:25;;;;;;;7.70;4.43;;;;;;;;;;4974967;28;20026;-66
2022/04/03 06:28:50;;;;;;;7.07;4.00;;;;;;;;;;4974181;28;20023;-67
2022/04/03 06:31:15;;;;;;;7.70;4.15;;;;;;;;;;4974782;28;20081;-67
2022/04/03 06:33:41;;;;;;;9.55;4.22;;;;;;;;;;4972895;28;20070;-66
2022/04/03 06:36:06;;;;;;;9.98;4.57;;;;;;;;;;4974890;28;20082;-67
2022/04/03 06:38:32;;;;;;;7.78;4.43;;;;;;;;;;4974909;28;20026;-67
2022/04/03 06:40:59;;;;;;;7.95;4.60;;;;;;;;;;4974260;28;20401;-66
2022/04/03 06:43:27;;;;;;;8.52;4.18;;;;;;;;;;4974540;28;20031;-66
2022/04/03 06:45:53;;;;;;;8.65;4.05;;;;;;;;;;4973785;28;20082;-67
2022/04/03 06:48:19;;;;;;;9.15;4.47;;;;;;;;;;4974876;28;20035;-66
2022/04/03 06:50:45;;;;;;;8.48;4.43;;;;;;;;;;4973979;28;20127;-66
2022/04/03 06:53:11;;;;;;;9.82;4.07;;;;;;;;;;4974434;28;20110;-68
2022/04/03 06:55:38;;;;;;;7.30;4.55;;;;;;;;;;4974855;28;20089;-66
2022/04/03 06:58:03;;;;;;;7.82;4.40;;;;;;;;;;4974125;28;20031;-67
2022/04/03 07:00:29;;;;;;;7.05;4.03;;;;;;;;;;4974628;28;20026;-66
2022/04/03 07:02:55;;;;;;;8.07;4.55;;;;;;;;;;4973925;28;20109;-67
2022/04/03 07:05:21;;;;;;;9.57;4.25;;;;;;;;;;4974088;28;20454;-67
2022/04/03 07:07:46;;;;;;;8.95;4.03;;;;;;;;;;4972513;28;20445;-66
2022/04/03 07:10:13;;;;;;;8.38;3.97;;;;;;;;;;4973843;28;20109;-67
2022/04/03 07:12:39;;;;;;;7.05;3.80;;;;;;;;;;4974067;28;20026;-66
2022/04/03 07:15:05;;;;;;;7.50;3.78;;;;;;;;;;4974349;28;20031;-66
2022/04/03 07:17:30;;;;;;;9.38;4.50;;;;;;;;;;4974290;28;20062;-66
2022/04/03 07:19:56;;;;;;;11.00;4.38;;;;;;;;;;4973298;28;20444;-65
2022/04/03 07:22:21;;;;;;;8.98;4.25;;;;;;;;;;4974040;28;20080;-66
2022/04/03 07:24:47;;;;;;;9.15;4.43;;;;;;;;;;4973638;28;20381;-66
2022/04/03 07:27:12;;;;;;;8.15;4.07;;;;;;;;;;4972913;28;20042;-67
2022/04/03 07:29:38;;;;;;;8.38;4.30;;;;;;;;;;4974287;28;20054;-66
2022/04/03 07:32:04;;;;;;;9.30;4.18;;;;;;;;;;4973313;28;20042;-67
2022/04/03 07:34:29;;;;;;;8.80;4.28;;;;;;;;;;4973848;28;20034;-67
2022/04/03 07:36:56;;;;;;;9.45;4.47;;;;;;;;;;4972728;28;20031;-67
2022/04/03 07:39:22;;;;;;;8.25;3.97;;;;;;;;;;4973309;28;20035;-67
2022/04/03 07:41:48;;;;;;;7.70;4.30;;;;;;;;;;4973188;28;20495;-66
2022/04/03 07:44:14;;;;;;;8.05;4.20;;;;;;;;;;4973734;28;20484;-67
2022/04/03 07:46:39;;;;;;;9.35;4.43;;;;;;;;;;4973981;28;20034;-67
2022/04/03 07:49:05;;;;;;;5.88;3.50;;;;;;;;;;4972489;28;20543;-67
2022/04/03 07:51:31;;;;;;;4.57;3.03;;;;;;;;;;4973176;28;20133;-67
2022/04/03 07:53:57;;;;;;;4.53;3.10;;;;;;;;;;4971853;28;20066;-68
2022/04/03 07:56:22;;;;;;;4.63;2.85;;;;;;;;;;4973674;28;20464;-67
2022/04/03 07:58:47;;;;;;;6.82;3.00;;;;;;;;;;4972572;28;20082;-68
2022/04/03 08:01:13;;;;;;;5.95;3.47;;;;;;;;;;4973812;28;20472;-67
2022/04/03 08:03:39;;;;;;;5.45;2.78;;;;;;;;;;4956280;28;20038;-68
2022/04/03 08:06:04;;;;;;;6.03;2.83;;;;;;;;;;4972914;28;20117;-68
2022/04/03 08:08:30;;;;;;;6.07;3.20;;;;;;;;;;4973353;28;20065;-67
2022/04/03 08:10:56;;;;;;;5.32;3.10;;;;;;;;;;4955546;28;20093;-68
2022/04/03 08:13:22;;;;;;;4.30;2.60;;;;;;;;;;4973759;28;20035;-67
2022/04/03 08:15:48;;;;;;;6.05;2.97;;;;;;;;;;4972706;28;20473;-68
2022/04/03 08:18:13;;;;;;;6.07;2.80;;;;;;;;;;4972377;28;20062;-67
2022/04/03 08:20:39;;;;;;;5.00;2.53;;;;;;;;;;4973902;28;20068;-67
2022/04/03 08:23:05;;;;;;;4.78;3.08;;;;;;;;;;4976752;28;20023;-67
2022/04/03 08:25:34;;;;;;;5.28;3.25;;;;;;;;;;4977256;28;20035;-68
2022/04/03 08:28:00;;;;;;;4.50;3.10;;;;;;;;;;4976256;28;20039;-68
2022/04/03 08:30:33;;;;;;;5.45;3.30;;;;;;;;;;4977134;28;20473;-67
2022/04/03 08:33:00;;;;;;;5.70;3.30;;;;;;;;;;4976951;28;20030;-68
2022/04/03 08:35:28;;;;;;;5.45;3.35;;;;;;;;;;4977085;28;20377;-68
2022/04/03 08:37:55;;;;;;;7.15;3.80;;;;;;;;;;4976370;28;20042;-67
2022/04/03 08:40:22;;;;;;;7.63;3.75;;;;;;;;;;4976970;28;20042;-67
2022/04/03 08:42:50;;;;;;;7.80;3.70;;;;;;;;;;4976068;28;20432;-67
2022/04/03 08:45:15;;;;;;;5.85;4.05;;;;;;;;;;4976585;28;20027;-67
2022/04/03 08:47:49;;;;;;;6.90;4.18;;;;;;;;;;4975699;28;20454;-67
2022/04/03 08:50:16;;;;;;;4.90;3.22;;;;;;;;;;4976497;28;20090;-66
2022/04/03 08:52:52;;;;;;;6.03;3.17;;;;;;;;;;4976931;28;20030;-67
2022/04/03 08:55:18;;;;;;;6.60;3.45;;;;;;;;;;4959787;28;20052;-68
2022/04/03 08:57:45;;;;;;;4.80;2.80;;;;;;;;;;4976806;28;20031;-67
2022/04/03 09:00:13;;;;;;;4.43;2.70;;;;;;;;;;4975511;28;20027;-66
2022/04/03 09:02:40;;;;;;;4.72;2.58;;;;;;;;;;4976618;28;20468;-67
2022/04/03 09:05:05;;;;;;;6.05;2.35;;;;;;;;;;4975748;28;20492;-66
2022/04/03 09:07:31;;;;;;;4.75;2.40;;;;;;;;;;4976667;28;20062;-66
2022/04/03 09:09:59;;;;;;;4.90;2.20;;;;;;;;;;4975861;28;20106;-66
2022/04/03 09:12:24;;;;;;;4.22;2.28;;;;;;;;;;4975176;28;20030;-66
2022/04/03 09:14:52;;;;;;;8.07;2.35;;;;;;;;;;4958521;28;20041;-66
2022/04/03 09:17:44;;;;;;;5.35;2.60;;;;;;;;;;4976294;28;20042;-66
2022/04/03 09:20:13;;;;;;;3.95;2.45;;;;;;;;;;4975779;28;20019;-66
2022/04/03 09:22:41;;;;;;;4.45;2.00;;;;;;;;;;4975976;28;20497;-66
2022/04/03 09:25:09;;;;;;;3.72;2.00;;;;;;;;;;4975587;28;20252;-68
2022/04/03 09:27:54;;;;;;;5.28;2.13;;;;;;;;;;4976034;28;20027;-66
2022/04/03 09:30:23;;;;;;;6.97;2.25;;;;;;;;;;4975955;28;20031;-66
2022/04/03 09:32:50;;;;;;;4.10;2.20;;;;;;;;;;4974766;28;20086;-66
2022/04/03 09:35:17;;;;;;;3.38;2.25;;;;;;;;;;4976271;28;20117;-66
2022/04/03 09:38:06;;;;;;;4.35;2.28;;;;;;;;;;4976175;28;20038;-66
2022/04/03 09:40:33;;;;;;;3.70;2.10;;;;;;;;;;4965675;28;20039;-65
2022/04/03 09:43:25;;;;;;;6.43;2.63;;;;;;;;;;4974066;28;20400;-66
2022/04/03 09:45:50;;;;;;;4.80;2.20;;;;;;;;;;4975200;28;20031;-65
2022/04/03 09:48:39;;;;;;;5.38;2.45;;;;;;;;;;4975866;28;20041;-66
2022/04/03 09:51:09;;;;;;;2.92;2.13;;;;;;;;;;4974620;28;20388;-65
2022/04/03 09:53:58;;;;;;;4.85;2.40;;;;;;;;;;4975869;28;20042;-65
2022/04/03 09:56:23;;;;;;;3.85;2.00;;;;;;;;;;4958178;28;20461;-66
2022/04/03 09:58:49;;;;;;;3.67;2.00;;;;;;;;;;4974864;28;20105;-65
2022/04/03 10:01:30;;;;;;;4.80;2.30;;;;;;;;;;4974537;28;20114;-65
2022/04/03 10:03:57;;;;;;;5.13;2.30;;;;;;;;;;4975000;28;20492;-65
2022/04/03 10:06:25;;;;;;;4.60;2.33;;;;;;;;;;4975539;28;20093;-65
2022/04/03 10:08:51;;;;;;;3.50;2.30;;;;;;;;;;4974843;28;20069;-65
2022/04/03 10:11:17;;;;;;;3.30;2.00;;;;;;;;;;4975117;28;20058;-65
2022/04/03 10:13:43;;;;;;;4.35;2.00;;;;;;;;;;4974157;28;20030;-65
2022/04/03 10:16:12;;;;;;;3.40;1.92;;;;;;;;;;4974654;28;20027;-66
2022/04/03 10:18:40;;;;;;;3.08;2.00;;;;;;;;;;4957729;28;20038;-65
2022/04/03 10:21:11;;;;;;;4.90;2.08;;;;;;;;;;4973116;28;20031;-65
2022/04/03 10:23:39;;;;;;;6.20;2.17;;;;;;;;;;4975140;28;20501;-66
2022/04/03 10:26:08;;;;;;;3.50;1.95;;;;;;;;;;4974509;28;20133;-65
2022/04/03 10:28:35;;;;;;;3.08;2.10;;;;;;;;;;4974862;28;20031;-65
2022/04/03 10:31:07;;;;;;;3.92;1.85;;;;;;;;;;4974056;28;20121;-66
2022/04/03 10:33:38;;;;;;;3.20;1.70;;;;;;;;;;4975127;28;20108;-66
2022/04/03 10:36:09;;;;;;;2.63;1.90;;;;;;;;;;4974346;28;20557;-65
2022/04/03 10:38:51;;;;;;;4.38;2.00;;;;;;;;;;4974737;28;20042;-65
2022/04/03 10:41:36;;;;;;;4.22;1.98;;;;;;;;;;4957403;28;20456;-65
2022/04/03 10:44:25;;;;;;;4.00;2.00;;;;;;;;;;4973409;28;20038;-65
2022/04/03 10:47:03;;;;;;;2.90;2.10;;;;;;;;;;4957343;28;20461;-65
2022/04/03 10:49:38;;;;;;;5.13;1.80;;;;;;;;;;4973357;28;20031;-65
2022/04/03 10:52:05;;;;;;;2.40;1.75;;;;;;;;;;4974148;28;20043;-65
2022/04/03 10:54:32;;;;;;;2.70;1.83;;;;;;;;;;4974730;28;20039;-66
2022/04/03 10:57:35;;;;;;;5.22;2.10;;;;;;;;;;4973708;28;20038;-66
2022/04/03 11:00:13;;;;;;;2.88;1.60;;;;;;;;;;4973911;28;20034;-65
2022/04/03 11:02:52;;;;;;;4.63;1.60;;;;;;;;;;4974574;28;20511;-66
2022/04/03 11:05:26;;;;;;;4.63;1.80;;;;;;;;;;4974551;28;20027;-65
2022/04/03 11:08:02;;;;;;;2.70;1.90;;;;;;;;;;4974135;28;20030;-66
2022/04/03 11:10:59;;;;;;;4.13;1.80;;;;;;;;;;4974061;28;20161;-66
2022/04/03 11:13:30;;;;;;;3.60;1.90;;;;;;;;;;4973743;28;20392;-66
2022/04/03 11:16:06;;;;;;;;;;;;;;;;;;4973799;28;20030;-65
2022/04/03 11:18:33;;;;;;;5.13;1.92;;;;;;;;;;4974237;28;20001;-66
2022/04/03 11:21:04;;;;;;;4.05;2.00;;;;;;;;;;4973458;28;20030;-67
2022/04/03 11:23:30;;;;;;;5.05;2.00;;;;;;;;;;4973789;28;20027;-65
2022/04/03 11:25:56;;;;;;;3.70;1.80;;;;;;;;;;4973111;28;20162;-65
2022/04/03 11:28:21;;;;;;;5.45;2.20;;;;;;;;;;4973974;28;20572;-65
2022/04/03 11:30:47;;;;;;;4.10;1.90;;;;;;;;;;4973826;28;20046;-66
2022/04/03 11:33:15;;;;;;;3.88;1.83;;;;;;;;;;4973128;28;20113;-65
2022/04/03 11:35:42;;;;;;;3.50;1.98;;;;;;;;;;4973788;28;20045;-65
2022/04/03 11:38:19;;;;;;;3.33;1.92;;;;;;;;;;4973215;28;20056;-65
2022/04/03 11:40:46;;;;;;;2.75;1.83;;;;;;;;;;4973691;28;20508;-65
2022/04/03 11:43:19;;;;;;;5.95;1.80;;;;;;;;;;4973269;28;20129;-65
2022/04/03 11:46:02;;;;;;;4.10;2.20;;;;;;;;;;4973505;28;20027;-65
2022/04/03 11:48:30;;;;;;;5.30;2.20;;;;;;;;;;4973637;28;20030;-65
2022/04/03 11:51:07;;;;;;;2.75;2.00;;;;;;;;;;4972756;28;20055;-66
2022/04/03 11:53:33;;;;;;;2.97;2.00;;;;;;;;;;4973711;28;20033;-65
2022/04/03 11:56:12;;;;;;;4.28;2.30;;;;;;;;;;4972873;28;20420;-66
2022/04/03 11:58:42;;;;;;;2.85;1.70;;;;;;;;;;4973407;28;20039;-65
2022/04/03 12:01:08;;;;;;;7.35;2.00;;;;;;;;;;4972968;28;20081;-65
2022/04/03 12:03:36;;;;;;;3.55;2.10;;;;;;;;;;4973652;28;20030;-65
2022/04/03 12:06:16;;;;;;;3.75;2.38;;;;;;;;;;4972772;28;20042;-66
2022/04/03 12:08:43;;;;;;;3.63;2.00;;;;;;;;;;4973517;28;20062;-65
2022/04/03 12:11:15;;;;;;;3.92;1.95;;;;;;;;;;4955165;28;20031;-66
2022/04/03 12:13:41;;;;;;;6.82;2.75;;;;;;;;;;4973472;28;20034;-66
2022/04/03 12:16:07;;;;;;;5.70;1.80;;;;;;;;;;4972452;28;20039;-66
2022/04/03 12:18:59;;;;;;;5.50;2.60;;;;;;;;;;4972117;28;20074;-66
2022/04/03 12:21:42;;;;;;;5.38;2.85;;;;;;;;;;4973273;28;20452;-65
2022/04/03 12:24:19;;;;;;;5.65;2.25;;;;;;;;;;4972747;28;20038;-65
2022/04/03 12:26:47;;;;;;;4.28;2.03;;;;;;;;;;4973442;28;20030;-66
2022/04/03 12:29:14;;;;;;;2.22;1.92;;;;;;;;;;4972698;28;20433;-65
2022/04/03 12:31:40;;;;;;;2.17;1.55;;;;;;;;;;4973215;28;20090;-66
2022/04/03 12:34:15;;;;;;;5.55;2.15;;;;;;;;;;4971443;28;20043;-65
2022/04/03 12:36:53;;;;;;;3.40;2.30;;;;;;;;;;4972984;28;20409;-66
2022/04/03 12:39:37;;;;;;;3.97;2.00;;;;;;;;;;4972514;28;20043;-65
2022/04/03 12:42:08;;;;;;;7.45;4.05;;;;;;;;;;4971331;28;20034;-65
2022/04/03 12:44:42;;;;;;;2.47;1.70;;;;;;;;;;4973145;28;20031;-65
2022/04/03 12:47:16;;;;;;;5.38;2.72;;;;;;;;;;4972441;28;20033;-65
2022/04/03 12:50:10;;;;;;;4.70;2.20;;;;;;;;;;4972807;28;20468;-65
2022/04/03 12:52:48;;;;;;;4.95;3.03;;;;;;;;;;4961039;28;20055;-65
2022/04/03 12:55:22;;;;;;;5.53;2.58;;;;;;;;;;4971342;28;20094;-65
2022/04/03 13:00:52;;;;;;;3.50;1.85;;;;;;;;;;4972693;28;20196;-65
2022/04/03 13:03:37;;;;;;;3.72;2.25;;;;;;;;;;4972315;28;20026;-65
2022/04/03 13:06:08;;;;;;;3.58;2.28;;;;;;;;;;4972145;28;20132;-65
2022/04/03 13:08:48;;;;;;;5.05;2.50;;;;;;;;;;4976440;28;20061;-65
2022/04/03 13:11:26;;;;;;;5.18;2.75;;;;;;;;;;4976114;28;20037;-65
2022/04/03 13:13:51;;;;;;;3.83;2.25;;;;;;;;;;4975145;28;20082;-65
2022/04/03 13:16:17;;;;;;;4.05;2.30;;;;;;;;;;4975497;28;20400;-65
2022/04/03 13:18:42;;;;;;;3.75;2.30;;;;;;;;;;4976072;28;20492;-65
2022/04/03 13:21:18;;;;;;;3.78;2.28;;;;;;;;;;4975527;28;20027;-65
2022/04/03 13:23:43;;;;;;;3.92;2.35;;;;;;;;;;4976225;28;20031;-66
2022/04/03 13:26:09;;;;;;;6.03;2.38;;;;;;;;;;4975571;28;20479;-65
2022/04/03 13:28:34;;;;;;;3.15;2.10;;;;;;;;;;4975852;28;20023;-65
2022/04/03 13:30:59;;;;;;;4.13;2.17;;;;;;;;;;4975562;28;20118;-66
2022/04/03 13:33:25;;;;;;;4.47;2.38;;;;;;;;;;4975014;28;20026;-65
2022/04/03 13:35:50;;;;;;;4.90;2.50;;;;;;;;;;4976045;28;20038;-65
2022/04/03 13:38:15;;;;;;;3.50;2.20;;;;;;;;;;4975329;28;20449;-65
2022/04/03 13:40:41;;;;;;;4.90;3.08;;;;;;;;;;4975798;28;20034;-65
2022/04/03 13:43:10;;;;;;;4.35;2.13;;;;;;;;;;4975382;28;20042;-65
2022/04/03 13:45:58;;;;;;;3.70;1.92;;;;;;;;;;4974346;28;20062;-66
2022/04/03 13:48:32;;;;;;;2.95;2.17;;;;;;;;;;4975333;28;20063;-65
2022/04/03 13:50:59;;;;;;;3.83;1.92;;;;;;;;;;4975356;28;20066;-66
2022/04/03 13:53:26;;;;;;;3.33;2.20;;;;;;;;;;4975082;28;20469;-66
2022/04/03 13:55:52;;;;;;;6.05;3.47;;;;;;;;;;4975666;28;20118;-66
2022/04/03 13:58:19;;;;;;;3.85;2.40;;;;;;;;;;4974634;28;20043;-67
2022/04/03 14:00:45;;;;;;;4.82;2.40;;;;;;;;;;4975504;28;20034;-66
2022/04/03 14:03:11;;;;;;;6.05;2.33;;;;;;;;;;4974930;28;20465;-66
2022/04/03 14:05:36;;;;;;;4.60;2.17;;;;;;;;;;4975621;28;20032;-65
2022/04/03 14:08:07;;;;;;;5.82;2.40;;;;;;;;;;4975611;28;20030;-67
2022/04/03 14:10:33;;;;;;;3.78;2.00;;;;;;;;;;4975525;28;20027;-66
2022/04/03 14:12:59;;;;;;;4.07;2.47;;;;;;;;;;4975290;28;20114;-66
2022/04/03 14:15:26;;;;;;;4.35;2.20;;;;;;;;;;4974785;28;20110;-66
2022/04/03 14:17:52;;;;;;;4.80;2.63;;;;;;;;;;4975021;28;20483;-65
2022/04/03 14:20:17;;;;;;;5.25;2.40;;;;;;;;;;4974281;28;20039;-65
2022/04/03 14:22:43;;;;;;;6.00;3.47;;;;;;;;;;4975555;28;20389;-66
2022/04/03 14:25:09;;;;;;;4.32;2.63;;;;;;;;;;4973201;28;20056;-65
2022/04/03 14:27:35;;;;;;;5.20;2.88;;;;;;;;;;4975188;28;20037;-66
2022/04/03 14:30:03;;;;;;;4.85;2.35;;;;;;;;;;4974985;28;20031;-66
2022/04/03 14:32:31;;;;;;;4.50;2.65;;;;;;;;;;4974337;28;20026;-65
2022/04/03 14:34:57;;;;;;;6.03;2.97;;;;;;;;;;4974925;28;20377;-66
2022/04/03 14:37:22;;;;;;;6.40;3.40;;;;;;;;;;4973059;28;20042;-66
2022/04/03 14:39:48;;;;;;;3.88;2.50;;;;;;;;;;4974768;28;20027;-66
2022/04/03 14:42:13;;;;;;;6.22;2.30;;;;;;;;;;4974018;28;20027;-66
2022/04/03 14:44:39;;;;;;;6.13;2.78;;;;;;;;;;4972729;28;20038;-66
2022/04/03 14:47:06;;;;;;;4.47;2.30;;;;;;;;;;4973492;28;20034;-66
2022/04/03 14:49:35;;;;;;;4.95;2.40;;;;;;;;;;4974679;28;20030;-67
2022/04/03 14:52:01;;;;;;;6.85;2.25;;;;;;;;;;4974164;28;20053;-66